createdAt,value
2018-05-11T00:00:10.077Z,8.89
2018-05-11T00:01:14.841Z,8.97
2018-05-11T00:02:19.653Z,8.90
2018-05-11T00:03:25.063Z,8.86
2018-05-11T00:04:29.681Z,8.75
2018-05-11T00:05:36.192Z,8.74
2018-05-11T00:06:41.180Z,8.82
2018-05-11T00:07:45.879Z,8.80
2018-05-11T00:08:51.820Z,8.88
2018-05-11T00:09:56.471Z,8.82
2018-05-11T00:11:02.011Z,8.81
2018-05-11T00:12:07.049Z,8.86
2018-05-11T00:13:11.626Z,8.80
2018-05-11T00:14:16.190Z,8.79
2018-05-11T00:15:20.739Z,8.70
2018-05-11T00:16:25.788Z,8.72
2018-05-11T00:17:30.706Z,8.68
2018-05-11T00:18:35.717Z,8.72
2018-05-11T00:19:41.361Z,8.71
2018-05-11T00:20:46.882Z,8.72
2018-05-11T00:21:51.454Z,8.68
2018-05-11T00:22:56.018Z,8.63
2018-05-11T00:24:00.606Z,8.67
2018-05-11T00:25:05.658Z,8.65
2018-05-11T00:26:10.234Z,8.67
2018-05-11T00:27:14.807Z,8.67
2018-05-11T00:28:21.475Z,8.73
2018-05-11T00:29:27.185Z,8.80
2018-05-11T00:30:32.669Z,8.80
2018-05-11T00:31:37.780Z,8.86
2018-05-11T00:32:43.184Z,8.89
2018-05-11T00:33:48.477Z,8.73
2018-05-11T00:34:53.485Z,8.68
2018-05-11T00:35:59.053Z,8.62
2018-05-11T00:37:03.760Z,8.71
2018-05-11T00:38:09.013Z,8.69
2018-05-11T00:39:14.528Z,8.71
2018-05-11T00:40:19.214Z,8.78
2018-05-11T00:41:24.393Z,8.89
2018-05-11T00:42:29.259Z,9.02
2018-05-11T00:43:33.913Z,8.92
2018-05-11T00:44:40.326Z,8.90
2018-05-11T00:45:44.917Z,8.94
2018-05-11T00:46:49.542Z,8.87
2018-05-11T00:47:55.216Z,8.94
2018-05-11T00:48:59.926Z,9.04
2018-05-11T00:50:04.555Z,9.08
2018-05-11T00:51:09.831Z,9.16
2018-05-11T00:52:15.726Z,9.11
2018-05-11T00:53:20.419Z,8.99
2018-05-11T00:54:25.007Z,8.92
2018-05-11T00:55:59.835Z,8.89
2018-05-11T00:57:05.828Z,8.84
2018-05-11T00:58:11.464Z,8.87
2018-05-11T00:59:16.115Z,8.85
2018-05-11T01:00:20.755Z,8.89
2018-05-11T01:01:25.364Z,8.91
2018-05-11T01:02:29.954Z,8.86
2018-05-11T01:03:34.546Z,8.84
2018-05-11T01:04:39.572Z,8.91
2018-05-11T01:05:44.375Z,8.97
2018-05-11T01:06:48.980Z,8.90
2018-05-11T01:07:53.550Z,8.92
2018-05-11T01:08:58.334Z,9.03
2018-05-11T01:10:02.900Z,9.05
2018-05-11T01:11:07.853Z,8.99
2018-05-11T01:12:12.458Z,8.97
2018-05-11T01:13:17.040Z,8.97
2018-05-11T01:14:21.640Z,9.00
2018-05-11T01:15:27.141Z,8.84
2018-05-11T01:16:31.698Z,8.83
2018-05-11T01:17:36.586Z,8.84
2018-05-11T01:18:41.185Z,8.81
2018-05-11T01:19:45.745Z,8.80
2018-05-11T01:20:50.312Z,8.80
2018-05-11T01:21:54.869Z,8.83
2018-05-11T01:22:59.473Z,8.79
2018-05-11T01:24:05.266Z,8.78
2018-05-11T01:25:09.866Z,8.90
2018-05-11T01:26:15.260Z,8.90
2018-05-11T01:27:20.084Z,8.89
2018-05-11T01:28:24.702Z,8.94
2018-05-11T01:29:30.315Z,8.97
2018-05-11T01:30:35.203Z,8.84
2018-05-11T01:31:39.832Z,8.81
2018-05-11T01:32:45.148Z,8.81
2018-05-11T01:33:51.494Z,8.82
2018-05-11T01:34:56.805Z,8.81
2018-05-11T01:36:01.452Z,8.73
2018-05-11T01:37:06.382Z,8.74
2018-05-11T01:38:11.929Z,8.78
2018-05-11T01:39:17.086Z,8.77
2018-05-11T01:40:21.657Z,8.87
2018-05-11T01:41:26.202Z,8.95
2018-05-11T01:42:30.835Z,8.89
2018-05-11T01:43:35.907Z,8.79
2018-05-11T01:44:41.901Z,8.83
2018-05-11T01:45:46.483Z,8.80
2018-05-11T01:46:51.353Z,8.80
2018-05-11T01:47:55.947Z,8.78
2018-05-11T01:49:00.392Z,8.76
2018-05-11T01:50:05.318Z,8.81
2018-05-11T01:51:10.585Z,8.84
2018-05-11T01:52:16.070Z,8.94
2018-05-11T01:53:20.545Z,8.97
2018-05-11T01:54:25.012Z,8.91
2018-05-11T01:55:29.516Z,8.89
2018-05-11T01:56:34.448Z,8.90
2018-05-11T01:57:39.489Z,8.85
2018-05-11T01:58:43.986Z,8.87
2018-05-11T01:59:48.510Z,8.86
2018-05-11T02:00:52.976Z,8.80
2018-05-11T02:01:57.877Z,8.82
2018-05-11T02:03:04.642Z,8.85
2018-05-11T02:04:09.232Z,8.87
2018-05-11T02:05:14.570Z,8.84
2018-05-11T02:06:19.154Z,8.87
2018-05-11T02:07:23.955Z,8.85
2018-05-11T02:08:28.542Z,8.80
2018-05-11T02:09:33.675Z,8.78
2018-05-11T02:10:38.328Z,8.56
2018-05-11T02:11:46.090Z,8.65
2018-05-11T02:12:51.282Z,8.70
2018-05-11T02:13:55.857Z,8.62
2018-05-11T02:15:00.581Z,8.61
2018-05-11T02:16:05.844Z,8.24
2018-05-11T02:17:11.042Z,8.22
2018-05-11T02:18:15.582Z,8.08
2018-05-11T02:19:20.138Z,8.04
2018-05-11T02:20:24.677Z,8.08
2018-05-11T02:21:29.189Z,8.12
2018-05-11T02:22:35.208Z,8.26
2018-05-11T02:23:40.644Z,8.33
2018-05-11T02:24:45.506Z,8.16
2018-05-11T02:25:50.070Z,8.10
2018-05-11T02:26:54.614Z,8.03
2018-05-11T02:27:59.332Z,8.05
2018-05-11T02:29:04.250Z,8.15
2018-05-11T02:30:09.895Z,7.92
2018-05-11T02:31:14.584Z,7.98
2018-05-11T02:32:19.201Z,8.03
2018-05-11T02:33:24.573Z,8.10
2018-05-11T02:34:34.462Z,8.20
2018-05-11T02:35:39.319Z,8.23
2018-05-11T02:36:43.804Z,8.26
2018-05-11T02:37:50.093Z,8.32
2018-05-11T02:38:55.700Z,8.29
2018-05-11T02:40:01.130Z,8.36
2018-05-11T02:41:05.714Z,8.29
2018-05-11T02:42:13.190Z,8.23
2018-05-11T02:43:18.532Z,8.23
2018-05-11T02:44:23.846Z,7.90
2018-05-11T02:45:29.961Z,7.85
2018-05-11T02:46:35.266Z,7.90
2018-05-11T02:47:40.625Z,8.05
2018-05-11T02:48:49.621Z,8.16
2018-05-11T02:49:56.659Z,8.25
2018-05-11T02:51:01.975Z,8.31
2018-05-11T02:52:07.575Z,8.34
2018-05-11T02:53:13.438Z,8.25
2018-05-11T02:54:20.263Z,8.32
2018-05-11T02:55:26.603Z,8.20
2018-05-11T02:56:31.932Z,8.25
2018-05-11T02:57:38.595Z,8.31
2018-05-11T02:58:45.843Z,8.35
2018-05-11T02:59:52.655Z,8.36
2018-05-11T03:00:58.997Z,8.33
2018-05-11T03:02:04.212Z,8.36
2018-05-11T03:03:09.525Z,8.25
2018-05-11T03:04:14.925Z,8.01
2018-05-11T03:05:20.611Z,7.88
2018-05-11T03:06:27.838Z,7.90
2018-05-11T03:07:33.559Z,7.88
2018-05-11T03:08:39.095Z,7.93
2018-05-11T03:09:44.892Z,7.89
2018-05-11T03:10:50.128Z,8.00
2018-05-11T03:11:55.481Z,8.06
2018-05-11T03:13:02.311Z,8.11
2018-05-11T03:14:07.876Z,8.16
2018-05-11T03:15:12.367Z,8.17
2018-05-11T03:16:16.873Z,8.11
2018-05-11T03:17:22.012Z,8.12
2018-05-11T03:18:27.843Z,8.15
2018-05-11T03:19:33.292Z,8.15
2018-05-11T03:20:39.474Z,8.09
2018-05-11T03:21:44.330Z,8.18
2018-05-11T03:22:48.788Z,8.18
2018-05-11T03:23:53.293Z,8.20
2018-05-11T03:24:58.288Z,8.24
2018-05-11T03:26:03.142Z,8.23
2018-05-11T03:27:08.150Z,8.32
2018-05-11T03:28:12.963Z,8.35
2018-05-11T03:29:17.517Z,8.41
2018-05-11T03:30:22.072Z,8.41
2018-05-11T03:31:26.623Z,8.41
2018-05-11T03:32:31.584Z,8.39
2018-05-11T03:33:36.493Z,8.43
2018-05-11T03:34:41.043Z,8.49
2018-05-11T03:35:45.618Z,8.45
2018-05-11T03:36:50.149Z,8.43
2018-05-11T03:37:54.699Z,8.29
2018-05-11T03:39:00.210Z,8.29
2018-05-11T03:40:06.071Z,8.31
2018-05-11T03:41:11.859Z,8.39
2018-05-11T03:42:16.498Z,8.51
2018-05-11T03:43:21.423Z,8.54
2018-05-11T03:44:26.649Z,8.54
2018-05-11T03:45:31.268Z,8.46
2018-05-11T03:46:36.186Z,8.47
2018-05-11T03:47:40.703Z,8.41
2018-05-11T03:48:45.263Z,8.47
2018-05-11T03:49:49.802Z,8.33
2018-05-11T03:50:54.446Z,8.33
2018-05-11T03:51:58.999Z,8.22
2018-05-11T03:53:04.415Z,8.12
2018-05-11T03:54:08.953Z,8.03
2018-05-11T03:55:13.681Z,7.96
2018-05-11T03:56:18.238Z,8.00
2018-05-11T03:57:24.230Z,8.06
2018-05-11T03:58:29.698Z,8.02
2018-05-11T03:59:34.590Z,8.08
2018-05-11T04:00:39.125Z,8.08
2018-05-11T04:01:48.728Z,8.13
2018-05-11T04:02:58.465Z,8.11
2018-05-11T04:04:08.319Z,8.13
2018-05-11T04:05:18.326Z,8.10
2018-05-11T04:06:27.095Z,8.10
2018-05-11T04:07:37.111Z,8.14
2018-05-11T04:08:43.528Z,8.07
2018-05-11T04:09:48.170Z,8.12
2018-05-11T04:10:53.636Z,8.18
2018-05-11T04:11:58.465Z,8.17
2018-05-11T04:13:03.891Z,8.15
2018-05-11T04:14:09.063Z,8.15
2018-05-11T04:15:14.072Z,8.08
2018-05-11T04:16:20.031Z,7.98
2018-05-11T04:17:24.606Z,8.03
2018-05-11T04:18:29.568Z,7.98
2018-05-11T04:19:34.089Z,7.95
2018-05-11T04:20:38.632Z,8.02
2018-05-11T04:21:43.177Z,8.09
2018-05-11T04:22:47.728Z,8.01
2018-05-11T04:23:53.509Z,8.07
2018-05-11T04:24:58.363Z,8.01
2018-05-11T04:26:02.961Z,7.71
2018-05-11T04:27:08.596Z,7.74
2018-05-11T04:28:14.738Z,7.75
2018-05-11T04:29:19.311Z,7.64
2018-05-11T04:30:23.942Z,7.62
2018-05-11T04:31:28.843Z,7.64
2018-05-11T04:32:34.805Z,7.56
2018-05-11T04:33:39.948Z,7.68
2018-05-11T04:34:44.731Z,7.82
2018-05-11T04:35:49.665Z,7.94
2018-05-11T04:36:54.180Z,7.91
2018-05-11T04:37:59.159Z,7.84
2018-05-11T04:39:03.937Z,7.88
2018-05-11T04:40:09.021Z,7.87
2018-05-11T04:41:13.678Z,7.86
2018-05-11T04:42:18.310Z,7.80
2018-05-11T04:43:22.844Z,7.78
2018-05-11T04:44:29.262Z,7.84
2018-05-11T04:45:34.704Z,7.84
2018-05-11T04:46:39.421Z,7.83
2018-05-11T04:47:43.977Z,7.93
2018-05-11T04:48:48.502Z,7.94
2018-05-11T04:49:53.018Z,7.87
2018-05-11T04:50:58.720Z,7.82
2018-05-11T04:52:04.106Z,7.96
2018-05-11T04:53:08.761Z,7.96
2018-05-11T04:54:16.196Z,7.96
2018-05-11T04:55:20.738Z,8.04
2018-05-11T04:56:25.384Z,8.11
2018-05-11T04:57:30.447Z,8.09
2018-05-11T04:58:34.978Z,7.95
2018-05-11T04:59:39.560Z,7.98
2018-05-11T05:00:44.480Z,7.95
2018-05-11T05:01:49.036Z,7.94
2018-05-11T05:02:53.554Z,8.08
2018-05-11T05:03:58.775Z,8.08
2018-05-11T05:05:04.057Z,8.21
2018-05-11T05:06:09.003Z,8.33
2018-05-11T05:07:13.576Z,8.35
2018-05-11T05:08:18.059Z,8.23
2018-05-11T05:09:23.805Z,8.27
2018-05-11T05:10:28.930Z,8.24
2018-05-11T05:11:33.467Z,8.22
2018-05-11T05:12:38.049Z,8.15
2018-05-11T05:13:42.611Z,8.27
2018-05-11T05:14:48.349Z,8.31
2018-05-11T05:15:52.974Z,8.34
2018-05-11T05:16:58.346Z,8.38
2018-05-11T05:18:03.203Z,8.34
2018-05-11T05:19:09.214Z,8.37
2018-05-11T05:20:15.462Z,8.36
2018-05-11T05:21:21.354Z,8.23
2018-05-11T05:22:26.720Z,8.33
2018-05-11T05:23:31.616Z,8.43
2018-05-11T05:24:36.210Z,8.41
2018-05-11T05:25:40.757Z,8.42
2018-05-11T05:26:45.358Z,8.27
2018-05-11T05:27:50.424Z,8.35
2018-05-11T05:28:54.995Z,8.45
2018-05-11T05:29:59.896Z,8.48
2018-05-11T05:31:04.460Z,8.64
2018-05-11T05:32:09.043Z,8.55
2018-05-11T05:33:14.108Z,8.69
2018-05-11T05:34:19.735Z,8.42
2018-05-11T05:35:24.337Z,8.37
2018-05-11T05:36:29.275Z,8.20
2018-05-11T05:37:33.821Z,8.22
2018-05-11T05:38:38.372Z,8.39
2018-05-11T05:39:42.946Z,8.38
2018-05-11T05:40:47.531Z,8.34
2018-05-11T05:41:52.080Z,8.27
2018-05-11T05:42:56.817Z,8.26
2018-05-11T05:44:01.370Z,8.32
2018-05-11T05:45:05.939Z,8.42
2018-05-11T05:46:10.512Z,8.42
2018-05-11T05:47:15.111Z,8.58
2018-05-11T05:48:20.070Z,8.44
2018-05-11T05:49:24.666Z,8.33
2018-05-11T05:50:29.446Z,8.19
2018-05-11T05:51:34.071Z,8.06
2018-05-11T05:52:38.591Z,8.15
2018-05-11T05:53:43.170Z,8.16
2018-05-11T05:54:48.135Z,8.28
2018-05-11T05:55:52.610Z,8.21
2018-05-11T05:56:57.117Z,8.24
2018-05-11T05:58:01.665Z,8.26
2018-05-11T05:59:06.182Z,8.32
2018-05-11T06:00:10.699Z,8.27
2018-05-11T06:01:15.616Z,8.42
2018-05-11T06:02:20.200Z,8.53
2018-05-11T06:03:24.752Z,8.56
2018-05-11T06:04:29.316Z,8.58
2018-05-11T06:05:33.844Z,8.54
2018-05-11T06:06:38.418Z,8.60
2018-05-11T06:07:43.316Z,8.67
2018-05-11T06:08:47.897Z,8.73
2018-05-11T06:09:52.468Z,8.83
2018-05-11T06:10:57.229Z,9.00
2018-05-11T06:12:01.822Z,9.19
2018-05-11T06:13:06.436Z,9.10
2018-05-11T06:14:11.319Z,9.27
2018-05-11T06:15:15.962Z,9.40
2018-05-11T06:16:21.597Z,9.48
2018-05-11T06:17:26.509Z,9.67
2018-05-11T06:18:32.017Z,9.60
2018-05-11T06:19:37.142Z,9.82
2018-05-11T06:20:43.678Z,9.74
2018-05-11T06:21:48.870Z,9.85
2018-05-11T06:22:54.007Z,9.91
2018-05-11T06:23:59.446Z,9.59
2018-05-11T06:25:04.331Z,9.74
2018-05-11T06:26:09.311Z,9.81
2018-05-11T06:27:14.095Z,9.95
2018-05-11T06:28:18.901Z,9.90
2018-05-11T06:29:23.544Z,9.73
2018-05-11T06:30:28.342Z,9.85
2018-05-11T06:31:32.900Z,10.00
2018-05-11T06:32:37.765Z,10.37
2018-05-11T06:33:42.389Z,10.51
2018-05-11T06:34:47.517Z,10.72
2018-05-11T06:35:53.961Z,10.77
2018-05-11T06:36:59.047Z,10.72
2018-05-11T06:38:03.936Z,10.52
2018-05-11T06:39:09.569Z,10.53
2018-05-11T06:40:14.978Z,10.26
2018-05-11T06:41:20.437Z,10.18
2018-05-11T06:42:25.787Z,10.28
2018-05-11T06:43:32.692Z,10.42
2018-05-11T06:44:38.305Z,10.61
2018-05-11T06:45:43.641Z,10.82
2018-05-11T06:46:49.751Z,10.98
2018-05-11T06:47:55.428Z,10.80
2018-05-11T06:49:01.399Z,10.72
2018-05-11T06:50:06.127Z,10.85
2018-05-11T06:51:12.054Z,11.03
2018-05-11T06:52:17.282Z,11.22
2018-05-11T06:53:22.443Z,11.36
2018-05-11T06:54:27.190Z,11.49
2018-05-11T06:55:31.762Z,11.64
2018-05-11T06:56:36.301Z,11.79
2018-05-11T06:57:41.047Z,11.94
2018-05-11T06:58:46.118Z,11.95
2018-05-11T06:59:50.693Z,12.04
2018-05-11T07:00:55.157Z,12.31
2018-05-11T07:01:59.775Z,12.42
2018-05-11T07:03:05.601Z,12.64
2018-05-11T07:04:10.622Z,12.63
2018-05-11T07:05:16.035Z,12.50
2018-05-11T07:06:22.092Z,12.54
2018-05-11T07:07:27.372Z,12.83
2018-05-11T07:08:33.078Z,12.82
2018-05-11T07:09:38.083Z,12.99
2018-05-11T07:10:43.270Z,12.99
2018-05-11T07:11:48.875Z,13.10
2018-05-11T07:12:53.909Z,13.22
2018-05-11T07:14:00.196Z,13.11
2018-05-11T07:15:06.145Z,13.17
2018-05-11T07:16:11.663Z,13.20
2018-05-11T07:17:16.997Z,13.34
2018-05-11T07:18:22.362Z,13.54
2018-05-11T07:19:28.799Z,13.64
2018-05-11T07:20:33.410Z,13.68
2018-05-11T07:21:38.362Z,13.87
2018-05-11T07:22:43.870Z,14.01
2018-05-11T07:23:48.886Z,14.16
2018-05-11T07:24:55.675Z,14.26
2018-05-11T07:26:00.429Z,14.33
2018-05-11T07:27:05.510Z,14.45
2018-05-11T07:28:10.875Z,14.25
2018-05-11T07:29:17.003Z,14.18
2018-05-11T07:30:22.021Z,13.95
2018-05-11T07:31:27.802Z,13.90
2018-05-11T07:32:33.379Z,14.21
2018-05-11T07:33:39.751Z,14.35
2018-05-11T07:34:47.771Z,14.41
2018-05-11T07:35:52.269Z,14.60
2018-05-11T07:36:57.220Z,15.05
2018-05-11T07:38:03.609Z,14.85
2018-05-11T07:39:08.746Z,15.10
2018-05-11T07:40:14.305Z,15.33
2018-05-11T07:41:19.885Z,15.00
2018-05-11T07:42:24.405Z,14.73
2018-05-11T07:43:29.366Z,14.86
2018-05-11T07:44:34.125Z,15.32
2018-05-11T07:45:39.739Z,15.60
2018-05-11T07:46:45.472Z,15.55
2018-05-11T07:47:50.356Z,14.61
2018-05-11T07:48:55.659Z,14.81
2018-05-11T07:50:02.416Z,14.98
2018-05-11T07:51:07.429Z,15.41
2018-05-11T07:52:13.142Z,16.11
2018-05-11T07:53:18.296Z,16.73
2018-05-11T07:54:23.167Z,16.85
2018-05-11T07:55:28.635Z,16.65
2018-05-11T07:56:33.706Z,16.59
2018-05-11T07:57:40.496Z,16.33
2018-05-11T07:58:48.372Z,15.70
2018-05-11T07:59:53.009Z,16.04
2018-05-11T08:00:57.913Z,15.81
2018-05-11T08:02:03.005Z,15.01
2018-05-11T08:03:08.113Z,14.64
2018-05-11T08:04:14.127Z,15.02
2018-05-11T08:05:20.022Z,15.23
2018-05-11T08:06:26.165Z,15.37
2018-05-11T08:07:31.529Z,15.45
2018-05-11T08:08:37.064Z,15.12
2018-05-11T08:09:42.997Z,14.91
2018-05-11T08:10:48.693Z,14.87
2018-05-11T08:11:54.137Z,15.16
2018-05-11T08:13:00.434Z,15.32
2018-05-11T08:14:05.802Z,15.74
2018-05-11T08:15:10.875Z,15.67
2018-05-11T08:16:16.892Z,15.29
2018-05-11T08:17:22.260Z,14.65
2018-05-11T08:18:27.285Z,14.38
2018-05-11T08:19:32.798Z,14.31
2018-05-11T08:20:38.333Z,14.67
2018-05-11T08:21:43.530Z,14.34
2018-05-11T08:22:49.083Z,14.61
2018-05-11T08:23:54.459Z,14.85
2018-05-11T08:24:59.423Z,15.14
2018-05-11T08:26:04.551Z,15.28
2018-05-11T08:27:10.118Z,15.27
2018-05-11T08:28:17.550Z,15.07
2018-05-11T08:29:23.578Z,15.63
2018-05-11T08:30:30.103Z,15.82
2018-05-11T08:31:35.916Z,15.63
2018-05-11T08:32:41.378Z,16.01
2018-05-11T08:33:47.113Z,16.67
2018-05-11T08:34:52.814Z,16.81
2018-05-11T08:35:59.333Z,16.96
2018-05-11T08:37:04.071Z,17.13
2018-05-11T08:38:09.208Z,17.15
2018-05-11T08:39:14.585Z,16.94
2018-05-11T08:40:20.074Z,16.70
2018-05-11T08:41:26.926Z,16.72
2018-05-11T08:42:32.545Z,16.48
2018-05-11T08:43:38.199Z,16.66
2018-05-11T08:44:43.389Z,16.72
2018-05-11T08:45:49.169Z,16.83
2018-05-11T08:46:55.262Z,16.37
2018-05-11T08:48:00.325Z,16.44
2018-05-11T08:49:06.173Z,16.14
2018-05-11T08:50:11.363Z,16.09
2018-05-11T08:51:17.452Z,16.45
2018-05-11T08:52:22.751Z,16.48
2018-05-11T08:53:29.234Z,16.66
2018-05-11T08:54:34.466Z,16.84
2018-05-11T08:55:39.949Z,17.09
2018-05-11T08:56:47.032Z,17.38
2018-05-11T08:57:52.855Z,17.02
2018-05-11T08:58:57.976Z,16.60
2018-05-11T09:00:03.737Z,16.72
2018-05-11T09:01:08.755Z,17.10
2018-05-11T09:02:14.457Z,17.48
2018-05-11T09:03:19.247Z,17.90
2018-05-11T09:04:24.425Z,18.36
2018-05-11T09:05:29.804Z,17.98
2018-05-11T09:06:38.675Z,17.20
2018-05-11T09:07:43.395Z,17.42
2018-05-11T09:08:47.974Z,17.08
2018-05-11T09:09:53.117Z,16.50
2018-05-11T09:10:58.094Z,16.79
2018-05-11T09:12:02.693Z,17.04
2018-05-11T09:13:08.256Z,17.19
2018-05-11T09:14:13.906Z,17.73
2018-05-11T09:15:18.459Z,17.62
2018-05-11T09:16:23.108Z,17.67
2018-05-11T09:17:27.650Z,18.14
2018-05-11T09:18:32.458Z,18.19
2018-05-11T09:19:37.527Z,17.78
2018-05-11T09:20:42.038Z,17.99
2018-05-11T09:21:46.563Z,18.21
2018-05-11T09:22:52.463Z,18.35
2018-05-11T09:23:56.986Z,18.03
2018-05-11T09:25:04.438Z,17.49
2018-05-11T09:26:09.284Z,17.08
2018-05-11T09:27:14.278Z,17.05
2018-05-11T09:28:20.116Z,17.42
2018-05-11T09:29:25.617Z,18.00
2018-05-11T09:30:31.322Z,17.73
2018-05-11T09:31:36.562Z,17.23
2018-05-11T09:32:41.369Z,17.52
2018-05-11T09:33:46.508Z,17.80
2018-05-11T09:34:51.183Z,18.19
2018-05-11T09:35:55.767Z,18.43
2018-05-11T09:37:03.265Z,18.62
2018-05-11T09:38:08.625Z,17.24
2018-05-11T09:39:13.497Z,16.87
2018-05-11T09:40:18.479Z,17.15
2018-05-11T09:41:23.950Z,17.02
2018-05-11T09:42:29.178Z,16.75
2018-05-11T09:43:34.230Z,17.01
2018-05-11T09:44:39.673Z,17.13
2018-05-11T09:45:45.414Z,17.12
2018-05-11T09:46:50.014Z,17.23
2018-05-11T09:47:54.769Z,17.33
2018-05-11T09:48:59.857Z,17.42
2018-05-11T09:50:05.125Z,17.59
2018-05-11T09:51:10.215Z,18.02
2018-05-11T09:52:15.520Z,18.04
2018-05-11T09:53:20.215Z,17.71
2018-05-11T09:54:25.522Z,17.63
2018-05-11T09:55:30.615Z,17.93
2018-05-11T09:56:35.779Z,17.91
2018-05-11T09:57:40.874Z,17.88
2018-05-11T09:58:45.538Z,17.56
2018-05-11T09:59:50.491Z,17.67
2018-05-11T10:00:55.372Z,18.33
2018-05-11T10:01:59.962Z,18.75
2018-05-11T10:03:04.655Z,18.62
2018-05-11T10:04:10.671Z,17.76
2018-05-11T10:05:16.077Z,17.71
2018-05-11T10:06:20.743Z,18.04
2018-05-11T10:07:26.723Z,18.19
2018-05-11T10:08:31.445Z,18.44
2018-05-11T10:09:36.128Z,18.67
2018-05-11T10:10:42.255Z,18.70
2018-05-11T10:11:46.928Z,18.21
2018-05-11T10:12:51.496Z,18.06
2018-05-11T10:13:56.588Z,18.07
2018-05-11T10:15:01.405Z,18.11
2018-05-11T10:16:06.098Z,18.26
2018-05-11T10:17:12.340Z,18.72
2018-05-11T10:18:16.905Z,19.02
2018-05-11T10:19:22.982Z,19.08
2018-05-11T10:20:27.651Z,18.61
2018-05-11T10:21:32.536Z,18.01
2018-05-11T10:22:37.373Z,17.47
2018-05-11T10:23:42.567Z,17.22
2018-05-11T10:24:47.403Z,17.79
2018-05-11T10:25:52.115Z,18.45
2018-05-11T10:26:56.616Z,19.04
2018-05-11T10:28:01.450Z,19.10
2018-05-11T10:29:06.306Z,18.56
2018-05-11T10:30:11.414Z,18.52
2018-05-11T10:31:16.101Z,18.39
2018-05-11T10:32:20.757Z,18.10
2018-05-11T10:33:25.800Z,17.84
2018-05-11T10:34:31.964Z,17.82
2018-05-11T10:35:36.540Z,18.08
2018-05-11T10:36:41.430Z,18.47
2018-05-11T10:37:46.001Z,18.31
2018-05-11T10:38:50.785Z,18.63
2018-05-11T10:39:55.641Z,19.07
2018-05-11T10:41:00.741Z,19.37
2018-05-11T10:42:05.357Z,18.78
2018-05-11T10:43:11.150Z,18.54
2018-05-11T10:44:16.604Z,18.59
2018-05-11T10:45:22.025Z,18.85
2018-05-11T10:46:27.799Z,18.54
2018-05-11T10:47:32.631Z,18.62
2018-05-11T10:48:38.831Z,19.25
2018-05-11T10:49:45.297Z,19.67
2018-05-11T10:50:51.166Z,19.85
2018-05-11T10:51:57.097Z,20.11
2018-05-11T10:53:01.775Z,20.08
2018-05-11T10:54:07.050Z,19.52
2018-05-11T10:55:13.290Z,18.98
2018-05-11T10:57:37.475Z,19.12
2018-05-11T10:58:42.072Z,18.73
2018-05-11T10:59:46.669Z,18.63
2018-05-11T11:00:51.240Z,18.28
2018-05-11T11:01:56.147Z,18.12
2018-05-11T11:03:01.901Z,18.65
2018-05-11T11:04:07.732Z,18.80
2018-05-11T11:05:12.577Z,18.11
2018-05-11T11:06:18.372Z,18.25
2018-05-11T11:07:23.584Z,18.02
2018-05-11T11:08:29.373Z,18.12
2018-05-11T11:09:34.922Z,18.23
2018-05-11T11:10:40.282Z,18.21
2018-05-11T11:11:45.436Z,18.33
2018-05-11T11:12:50.078Z,18.98
2018-05-11T11:13:54.654Z,19.22
2018-05-11T11:14:59.286Z,19.07
2018-05-11T11:16:03.969Z,18.95
2018-05-11T11:17:08.660Z,18.98
2018-05-11T11:18:14.127Z,18.97
2018-05-11T11:19:18.810Z,18.60
2018-05-11T11:20:23.443Z,18.67
2018-05-11T11:21:28.323Z,18.67
2018-05-11T11:22:32.985Z,19.02
2018-05-11T11:23:37.649Z,19.52
2018-05-11T11:24:43.171Z,19.52
2018-05-11T11:25:50.749Z,19.81
2018-05-11T11:26:56.534Z,19.63
2018-05-11T11:28:01.077Z,19.03
2018-05-11T11:29:06.639Z,19.07
2018-05-11T11:30:11.132Z,18.83
2018-05-11T11:31:16.990Z,19.35
2018-05-11T11:32:21.781Z,20.03
2018-05-11T11:33:26.966Z,20.19
2018-05-11T11:34:32.133Z,20.25
2018-05-11T11:35:36.703Z,19.82
2018-05-11T11:36:41.376Z,19.34
2018-05-11T11:37:46.542Z,19.61
2018-05-11T11:38:51.256Z,19.27
2018-05-11T11:39:57.398Z,19.40
2018-05-11T11:41:03.488Z,19.70
2018-05-11T11:42:08.300Z,19.42
2018-05-11T11:43:14.491Z,19.42
2018-05-11T11:44:19.689Z,19.45
2018-05-11T11:45:24.346Z,19.24
2018-05-11T11:46:29.376Z,19.55
2018-05-11T11:47:35.318Z,19.70
2018-05-11T11:48:40.344Z,19.86
2018-05-11T11:49:44.908Z,19.81
2018-05-11T11:50:49.515Z,19.63
2018-05-11T11:51:54.139Z,19.87
2018-05-11T11:53:00.800Z,19.66
2018-05-11T11:54:05.421Z,19.67
2018-05-11T11:55:10.051Z,19.99
2018-05-11T11:56:15.284Z,20.26
2018-05-11T11:57:19.940Z,20.78
2018-05-11T11:58:24.805Z,21.04
2018-05-11T11:59:31.342Z,21.48
2018-05-11T12:00:35.930Z,21.39
2018-05-11T12:01:41.456Z,21.42
2018-05-11T12:02:46.689Z,21.51
2018-05-11T12:03:51.281Z,21.52
2018-05-11T12:04:57.239Z,21.28
2018-05-11T12:06:03.403Z,21.32
2018-05-11T12:07:08.154Z,20.91
2018-05-11T12:08:13.599Z,20.53
2018-05-11T12:09:18.208Z,20.19
2018-05-11T12:10:23.231Z,19.42
2018-05-11T12:11:29.334Z,19.20
2018-05-11T12:12:35.986Z,19.05
2018-05-11T12:13:41.803Z,19.19
2018-05-11T12:14:47.667Z,19.57
2018-05-11T12:15:52.316Z,20.00
2018-05-11T12:16:57.602Z,20.08
2018-05-11T12:18:02.097Z,20.37
2018-05-11T12:19:07.015Z,20.26
2018-05-11T12:20:11.616Z,20.01
2018-05-11T12:21:16.425Z,20.09
2018-05-11T12:22:21.645Z,19.75
2018-05-11T12:23:26.274Z,19.54
2018-05-11T12:24:30.911Z,18.74
2018-05-11T12:25:36.832Z,18.91
2018-05-11T12:26:41.448Z,18.98
2018-05-11T12:27:46.596Z,19.15
2018-05-11T12:28:51.189Z,19.33
2018-05-11T12:29:55.816Z,19.27
2018-05-11T12:31:01.234Z,19.50
2018-05-11T12:32:05.874Z,19.75
2018-05-11T12:33:11.196Z,19.70
2018-05-11T12:34:16.887Z,19.72
2018-05-11T12:35:21.500Z,19.73
2018-05-11T12:36:26.068Z,19.37
2018-05-11T12:37:31.610Z,19.41
2018-05-11T12:38:36.231Z,19.45
2018-05-11T12:39:41.340Z,19.26
2018-05-11T12:40:45.878Z,19.12
2018-05-11T12:41:50.471Z,19.43
2018-05-11T12:42:56.334Z,19.29
2018-05-11T12:44:01.161Z,19.12
2018-05-11T12:45:05.687Z,19.14
2018-05-11T12:46:11.008Z,19.41
2018-05-11T12:47:15.521Z,19.81
2018-05-11T12:48:21.479Z,19.72
2018-05-11T12:49:27.723Z,19.91
2018-05-11T12:50:32.863Z,20.57
2018-05-11T12:51:38.813Z,21.01
2018-05-11T12:52:45.203Z,20.90
2018-05-11T12:53:49.903Z,20.86
2018-05-11T12:54:57.522Z,20.67
2018-05-11T12:56:02.365Z,19.93
2018-05-11T12:57:08.663Z,19.52
2018-05-11T12:58:13.285Z,19.35
2018-05-11T12:59:18.628Z,19.59
2018-05-11T13:00:24.801Z,20.28
2018-05-11T13:01:31.427Z,20.36
2018-05-11T13:02:36.048Z,20.06
2018-05-11T13:03:41.853Z,20.10
2018-05-11T13:04:46.449Z,19.85
2018-05-11T13:05:52.097Z,20.31
2018-05-11T13:06:57.348Z,20.66
2018-05-11T13:08:02.846Z,21.33
2018-05-11T13:09:07.855Z,21.87
2018-05-11T13:10:14.016Z,22.21
2018-05-11T13:11:19.779Z,21.43
2018-05-11T13:12:25.621Z,20.61
2018-05-11T13:13:30.686Z,19.98
2018-05-11T13:14:35.816Z,19.78
2018-05-11T13:15:41.680Z,20.13
2018-05-11T13:16:46.983Z,20.21
2018-05-11T13:17:52.003Z,19.60
2018-05-11T13:18:57.186Z,19.41
2018-05-11T13:20:02.039Z,19.46
2018-05-11T13:21:06.969Z,19.19
2018-05-11T13:22:11.597Z,18.79
2018-05-11T13:23:18.694Z,18.60
2018-05-11T13:24:25.205Z,18.73
2018-05-11T13:25:31.479Z,18.93
2018-05-11T13:26:37.690Z,19.03
2018-05-11T13:27:43.266Z,19.30
2018-05-11T13:28:49.556Z,19.42
2018-05-11T13:29:54.469Z,19.93
2018-05-11T13:31:00.063Z,19.92
2018-05-11T13:32:04.706Z,19.54
2018-05-11T13:33:11.231Z,19.31
2018-05-11T13:34:17.596Z,19.16
2018-05-11T13:35:22.261Z,19.07
2018-05-11T13:36:27.720Z,19.00
2018-05-11T13:37:32.365Z,19.24
2018-05-11T13:38:36.940Z,19.79
2018-05-11T13:39:41.575Z,20.24
2018-05-11T13:40:46.796Z,20.25
2018-05-11T13:41:52.368Z,20.63
2018-05-11T13:42:57.169Z,20.24
2018-05-11T13:44:09.791Z,19.30
2018-05-11T13:45:15.083Z,19.05
2018-05-11T13:46:20.091Z,19.20
2018-05-11T13:47:25.068Z,18.82
2018-05-11T13:48:31.687Z,18.84
2018-05-11T13:49:36.351Z,18.78
2018-05-11T13:50:41.016Z,18.64
2018-05-11T13:51:46.060Z,18.92
2018-05-11T13:52:51.897Z,18.95
2018-05-11T13:53:56.606Z,18.79
2018-05-11T13:55:02.117Z,18.88
2018-05-11T13:56:06.993Z,18.96
2018-05-11T13:57:11.681Z,18.96
2018-05-11T13:58:16.465Z,19.17
2018-05-11T13:59:21.160Z,18.87
2018-05-11T14:00:26.740Z,18.70
2018-05-11T14:01:31.616Z,18.76
2018-05-11T14:02:36.161Z,19.00
2018-05-11T14:03:40.722Z,19.19
2018-05-11T14:04:45.375Z,19.28
2018-05-11T14:05:49.883Z,19.33
2018-05-11T14:06:54.731Z,18.94
2018-05-11T14:07:59.232Z,18.52
2018-05-11T14:09:03.833Z,18.42
2018-05-11T14:10:08.388Z,18.49
2018-05-11T14:11:12.973Z,18.55
2018-05-11T14:12:17.474Z,18.62
2018-05-11T14:13:22.302Z,18.69
2018-05-11T14:14:26.876Z,18.95